sensor_id;sensor_type;location;lat;lon;timestamp;P1;durP1;ratioP1;P2;durP2;ratioP2
64063;SDS011;50314;50.618;10.642;2022-08-06T00:01:40;1.13;;;0.80;;
64063;SDS011;50314;50.618;10.642;2022-08-06T00:04:05;2.20;;;0.88;;
64063;SDS011;50314;50.618;10.642;2022-08-06T00:06:31;0.65;;;0.60;;
64063;SDS011;50314;50.618;10.642;2022-08-06T00:08:56;1.13;;;1.02;;
64063;SDS011;50314;50.618;10.642;2022-08-06T00:11:21;1.10;;;1.00;;
64063;SDS011;50314;50.618;10.642;2022-08-06T00:13:47;1.02;;;0.90;;
64063;SDS011;50314;50.618;10.642;2022-08-06T00:16:12;1.00;;;0.90;;
64063;SDS011;50314;50.618;10.642;2022-08-06T00:18:38;1.02;;;0.95;;
64063;SDS011;50314;50.618;10.642;2022-08-06T00:21:03;1.23;;;1.00;;
64063;SDS011;50314;50.618;10.642;2022-08-06T00:23:29;0.80;;;0.70;;
64063;SDS011;50314;50.618;10.642;2022-08-06T00:25:55;0.90;;;0.90;;
64063;SDS011;50314;50.618;10.642;2022-08-06T00:28:21;0.80;;;0.80;;
64063;SDS011;50314;50.618;10.642;2022-08-06T00:30:48;1.92;;;0.90;;
64063;SDS011;50314;50.618;10.642;2022-08-06T00:33:13;1.25;;;0.80;;
64063;SDS011;50314;50.618;10.642;2022-08-06T00:35:39;0.80;;;0.80;;
64063;SDS011;50314;50.618;10.642;2022-08-06T00:38:04;1.40;;;0.90;;
64063;SDS011;50314;50.618;10.642;2022-08-06T00:40:30;0.95;;;0.90;;
64063;SDS011;50314;50.618;10.642;2022-08-06T00:42:59;1.40;;;1.00;;
64063;SDS011;50314;50.618;10.642;2022-08-06T00:45:27;0.90;;;0.90;;
64063;SDS011;50314;50.618;10.642;2022-08-06T00:47:53;1.38;;;0.95;;
64063;SDS011;50314;50.618;10.642;2022-08-06T00:50:18;0.70;;;0.70;;
64063;SDS011;50314;50.618;10.642;2022-08-06T00:52:44;0.80;;;0.80;;
64063;SDS011;50314;50.618;10.642;2022-08-06T00:57:36;0.93;;;0.90;;
64063;SDS011;50314;50.618;10.642;2022-08-06T01:00:01;1.08;;;0.70;;
64063;SDS011;50314;50.618;10.642;2022-08-06T01:02:28;1.00;;;0.90;;
64063;SDS011;50314;50.618;10.642;2022-08-06T01:04:53;1.20;;;1.08;;
64063;SDS011;50314;50.618;10.642;2022-08-06T01:07:18;1.40;;;0.90;;
64063;SDS011;50314;50.618;10.642;2022-08-06T01:09:44;1.52;;;0.80;;
64063;SDS011;50314;50.618;10.642;2022-08-06T01:12:09;1.33;;;1.23;;
64063;SDS011;50314;50.618;10.642;2022-08-06T01:14:35;0.80;;;0.80;;
64063;SDS011;50314;50.618;10.642;2022-08-06T01:17:05;1.20;;;1.10;;
64063;SDS011;50314;50.618;10.642;2022-08-06T01:19:42;0.90;;;0.73;;
64063;SDS011;50314;50.618;10.642;2022-08-06T01:28:45;0.98;;;0.98;;
64063;SDS011;50314;50.618;10.642;2022-08-06T01:31:19;1.40;;;1.08;;
64063;SDS011;50314;50.618;10.642;2022-08-06T01:33:52;1.70;;;1.08;;
64063;SDS011;50314;50.618;10.642;2022-08-06T01:36:31;1.33;;;0.88;;
64063;SDS011;50314;50.618;10.642;2022-08-06T01:39:01;0.90;;;0.90;;
64063;SDS011;50314;50.618;10.642;2022-08-06T01:41:30;1.00;;;0.90;;
64063;SDS011;50314;50.618;10.642;2022-08-06T01:44:07;0.80;;;0.80;;
64063;SDS011;50314;50.618;10.642;2022-08-06T01:46:49;1.00;;;0.88;;
64063;SDS011;50314;50.618;10.642;2022-08-06T01:49:23;0.93;;;0.93;;
64063;SDS011;50314;50.618;10.642;2022-08-06T01:51:51;0.55;;;0.55;;
64063;SDS011;50314;50.618;10.642;2022-08-06T01:54:19;0.80;;;0.73;;
64063;SDS011;50314;50.618;10.642;2022-08-06T01:56:48;0.80;;;0.80;;
64063;SDS011;50314;50.618;10.642;2022-08-06T01:59:16;0.85;;;0.85;;
64063;SDS011;50314;50.618;10.642;2022-08-06T02:01:47;0.90;;;0.80;;
64063;SDS011;50314;50.618;10.642;2022-08-06T02:04:16;0.88;;;0.88;;
64063;SDS011;50314;50.618;10.642;2022-08-06T02:06:45;1.40;;;0.93;;
64063;SDS011;50314;50.618;10.642;2022-08-06T02:09:13;1.00;;;0.80;;
64063;SDS011;50314;50.618;10.642;2022-08-06T02:11:42;0.90;;;0.90;;
64063;SDS011;50314;50.618;10.642;2022-08-06T02:14:12;0.98;;;0.80;;
64063;SDS011;50314;50.618;10.642;2022-08-06T02:16:41;0.80;;;0.80;;
64063;SDS011;50314;50.618;10.642;2022-08-06T02:19:07;0.73;;;0.70;;
64063;SDS011;50314;50.618;10.642;2022-08-06T02:21:36;0.80;;;0.80;;
64063;SDS011;50314;50.618;10.642;2022-08-06T02:24:06;1.10;;;1.00;;
64063;SDS011;50314;50.618;10.642;2022-08-06T02:26:34;0.80;;;0.80;;
64063;SDS011;50314;50.618;10.642;2022-08-06T02:29:03;1.17;;;0.82;;
64063;SDS011;50314;50.618;10.642;2022-08-06T02:31:30;0.90;;;0.90;;
64063;SDS011;50314;50.618;10.642;2022-08-06T02:33:56;1.10;;;0.90;;
64063;SDS011;50314;50.618;10.642;2022-08-06T02:36:29;2.17;;;1.25;;
64063;SDS011;50314;50.618;10.642;2022-08-06T02:39:06;1.27;;;1.00;;
64063;SDS011;50314;50.618;10.642;2022-08-06T02:42:03;0.60;;;0.60;;
64063;SDS011;50314;50.618;10.642;2022-08-06T02:44:45;1.27;;;0.80;;
64063;SDS011;50314;50.618;10.642;2022-08-06T02:47:14;1.00;;;0.93;;
64063;SDS011;50314;50.618;10.642;2022-08-06T02:49:48;1.55;;;0.93;;
64063;SDS011;50314;50.618;10.642;2022-08-06T02:52:19;1.70;;;0.70;;
64063;SDS011;50314;50.618;10.642;2022-08-06T02:54:56;0.85;;;0.85;;
64063;SDS011;50314;50.618;10.642;2022-08-06T02:57:24;1.25;;;0.70;;
64063;SDS011;50314;50.618;10.642;2022-08-06T02:59:58;0.80;;;0.80;;
64063;SDS011;50314;50.618;10.642;2022-08-06T03:02:28;1.83;;;1.33;;
64063;SDS011;50314;50.618;10.642;2022-08-06T03:04:54;0.95;;;0.82;;
64063;SDS011;50314;50.618;10.642;2022-08-06T03:07:24;1.45;;;1.13;;
64063;SDS011;50314;50.618;10.642;2022-08-06T03:09:52;0.65;;;0.65;;
64063;SDS011;50314;50.618;10.642;2022-08-06T03:12:19;1.27;;;0.80;;
64063;SDS011;50314;50.618;10.642;2022-08-06T03:14:45;0.65;;;0.63;;
64063;SDS011;50314;50.618;10.642;2022-08-06T03:17:13;1.05;;;0.93;;
64063;SDS011;50314;50.618;10.642;2022-08-06T03:19:43;1.02;;;0.93;;
64063;SDS011;50314;50.618;10.642;2022-08-06T03:22:10;0.90;;;0.90;;
64063;SDS011;50314;50.618;10.642;2022-08-06T03:27:02;0.95;;;0.82;;
64063;SDS011;50314;50.618;10.642;2022-08-06T03:29:29;0.80;;;0.80;;
64063;SDS011;50314;50.618;10.642;2022-08-06T03:31:57;1.33;;;0.90;;
64063;SDS011;50314;50.618;10.642;2022-08-06T03:34:23;1.00;;;0.90;;
64063;SDS011;50314;50.618;10.642;2022-08-06T03:36:50;1.30;;;1.02;;
64063;SDS011;50314;50.618;10.642;2022-08-06T03:39:16;0.90;;;0.90;;
64063;SDS011;50314;50.618;10.642;2022-08-06T03:41:42;1.02;;;1.02;;
64063;SDS011;50314;50.618;10.642;2022-08-06T03:44:09;1.00;;;0.90;;
64063;SDS011;50314;50.618;10.642;2022-08-06T03:46:41;1.08;;;0.73;;
64063;SDS011;50314;50.618;10.642;2022-08-06T03:49:18;0.80;;;0.77;;
64063;SDS011;50314;50.618;10.642;2022-08-06T03:51:48;0.80;;;0.80;;
64063;SDS011;50314;50.618;10.642;2022-08-06T03:54:18;0.90;;;0.90;;
64063;SDS011;50314;50.618;10.642;2022-08-06T03:56:46;1.13;;;0.73;;
64063;SDS011;50314;50.618;10.642;2022-08-06T03:59:14;1.00;;;1.00;;
64063;SDS011;50314;50.618;10.642;2022-08-06T04:01:41;1.15;;;0.95;;
64063;SDS011;50314;50.618;10.642;2022-08-06T04:04:08;1.58;;;1.00;;
64063;SDS011;50314;50.618;10.642;2022-08-06T04:06:34;0.73;;;0.73;;
64063;SDS011;50314;50.618;10.642;2022-08-06T04:09:01;2.20;;;1.20;;
64063;SDS011;50314;50.618;10.642;2022-08-06T04:11:27;1.52;;;0.82;;
64063;SDS011;50314;50.618;10.642;2022-08-06T04:13:54;0.98;;;0.98;;
64063;SDS011;50314;50.618;10.642;2022-08-06T04:16:20;0.68;;;0.68;;
64063;SDS011;50314;50.618;10.642;2022-08-06T04:18:47;0.68;;;0.68;;
64063;SDS011;50314;50.618;10.642;2022-08-06T04:21:16;0.95;;;0.88;;
64063;SDS011;50314;50.618;10.642;2022-08-06T04:23:45;0.70;;;0.70;;
64063;SDS011;50314;50.618;10.642;2022-08-06T04:26:12;1.80;;;1.10;;
64063;SDS011;50314;50.618;10.642;2022-08-06T04:28:40;1.10;;;1.00;;
64063;SDS011;50314;50.618;10.642;2022-08-06T04:31:07;0.93;;;0.93;;
64063;SDS011;50314;50.618;10.642;2022-08-06T04:38:30;0.70;;;0.70;;
64063;SDS011;50314;50.618;10.642;2022-08-06T04:40:57;0.98;;;0.88;;
64063;SDS011;50314;50.618;10.642;2022-08-06T04:43:24;0.90;;;0.80;;
64063;SDS011;50314;50.618;10.642;2022-08-06T04:45:50;1.83;;;1.00;;
64063;SDS011;50314;50.618;10.642;2022-08-06T04:48:16;0.75;;;0.75;;
64063;SDS011;50314;50.618;10.642;2022-08-06T04:50:42;0.70;;;0.70;;
64063;SDS011;50314;50.618;10.642;2022-08-06T04:53:12;1.35;;;0.80;;
64063;SDS011;50314;50.618;10.642;2022-08-06T04:55:39;0.98;;;0.73;;
64063;SDS011;50314;50.618;10.642;2022-08-06T04:58:06;0.93;;;0.93;;
64063;SDS011;50314;50.618;10.642;2022-08-06T05:00:33;0.90;;;0.90;;
64063;SDS011;50314;50.618;10.642;2022-08-06T05:03:00;1.25;;;0.80;;
64063;SDS011;50314;50.618;10.642;2022-08-06T05:05:25;0.70;;;0.70;;
64063;SDS011;50314;50.618;10.642;2022-08-06T05:07:52;1.00;;;0.80;;
64063;SDS011;50314;50.618;10.642;2022-08-06T05:10:22;1.70;;;1.20;;
64063;SDS011;50314;50.618;10.642;2022-08-06T05:12:55;1.45;;;1.40;;
64063;SDS011;50314;50.618;10.642;2022-08-06T05:15:34;2.28;;;1.05;;
64063;SDS011;50314;50.618;10.642;2022-08-06T05:18:07;1.50;;;1.40;;
64063;SDS011;50314;50.618;10.642;2022-08-06T05:20:35;1.88;;;1.77;;
64063;SDS011;50314;50.618;10.642;2022-08-06T05:23:06;2.55;;;1.55;;
64063;SDS011;50314;50.618;10.642;2022-08-06T05:25:36;1.65;;;1.40;;
64063;SDS011;50314;50.618;10.642;2022-08-06T05:28:03;1.73;;;1.63;;
64063;SDS011;50314;50.618;10.642;2022-08-06T05:30:30;1.20;;;1.15;;
64063;SDS011;50314;50.618;10.642;2022-08-06T05:32:56;1.73;;;1.63;;
64063;SDS011;50314;50.618;10.642;2022-08-06T05:35:23;1.15;;;1.13;;
64063;SDS011;50314;50.618;10.642;2022-08-06T05:37:48;1.15;;;1.05;;
64063;SDS011;50314;50.618;10.642;2022-08-06T05:40:14;1.52;;;1.42;;
64063;SDS011;50314;50.618;10.642;2022-08-06T05:42:39;2.65;;;1.38;;
64063;SDS011;50314;50.618;10.642;2022-08-06T05:45:05;1.40;;;1.30;;
64063;SDS011;50314;50.618;10.642;2022-08-06T05:47:35;1.20;;;1.20;;
64063;SDS011;50314;50.618;10.642;2022-08-06T05:50:08;1.33;;;1.15;;
64063;SDS011;50314;50.618;10.642;2022-08-06T05:52:42;1.48;;;1.38;;
64063;SDS011;50314;50.618;10.642;2022-08-06T05:55:27;1.40;;;1.30;;
64063;SDS011;50314;50.618;10.642;2022-08-06T05:58:00;1.70;;;1.60;;
64063;SDS011;50314;50.618;10.642;2022-08-06T06:00:29;1.00;;;1.00;;
64063;SDS011;50314;50.618;10.642;2022-08-06T06:02:57;1.30;;;1.20;;
64063;SDS011;50314;50.618;10.642;2022-08-06T06:05:25;1.20;;;1.20;;
64063;SDS011;50314;50.618;10.642;2022-08-06T06:07:51;1.50;;;1.20;;
64063;SDS011;50314;50.618;10.642;2022-08-06T06:10:17;1.10;;;1.10;;
64063;SDS011;50314;50.618;10.642;2022-08-06T06:12:43;1.98;;;1.15;;
64063;SDS011;50314;50.618;10.642;2022-08-06T06:15:11;1.63;;;1.40;;
64063;SDS011;50314;50.618;10.642;2022-08-06T06:21:10;1.45;;;1.40;;
64063;SDS011;50314;50.618;10.642;2022-08-06T06:24:21;1.83;;;1.23;;
64063;SDS011;50314;50.618;10.642;2022-08-06T06:26:48;1.10;;;1.10;;
64063;SDS011;50314;50.618;10.642;2022-08-06T06:29:35;1.00;;;1.00;;
64063;SDS011;50314;50.618;10.642;2022-08-06T06:32:49;1.42;;;1.38;;
64063;SDS011;50314;50.618;10.642;2022-08-06T06:35:23;1.40;;;1.30;;
64063;SDS011;50314;50.618;10.642;2022-08-06T06:43:37;1.67;;;1.10;;
64063;SDS011;50314;50.618;10.642;2022-08-06T06:46:31;1.10;;;0.98;;
64063;SDS011;50314;50.618;10.642;2022-08-06T06:49:18;1.45;;;1.27;;
64063;SDS011;50314;50.618;10.642;2022-08-06T06:51:46;1.00;;;1.00;;
64063;SDS011;50314;50.618;10.642;2022-08-06T06:54:22;0.98;;;0.95;;
64063;SDS011;50314;50.618;10.642;2022-08-06T06:56:58;2.05;;;1.65;;
64063;SDS011;50314;50.618;10.642;2022-08-06T06:59:30;1.38;;;1.00;;
64063;SDS011;50314;50.618;10.642;2022-08-06T07:02:00;1.15;;;1.05;;
64063;SDS011;50314;50.618;10.642;2022-08-06T07:04:27;1.08;;;1.08;;
64063;SDS011;50314;50.618;10.642;2022-08-06T07:06:55;1.63;;;1.10;;
64063;SDS011;50314;50.618;10.642;2022-08-06T07:09:23;1.67;;;1.17;;
64063;SDS011;50314;50.618;10.642;2022-08-06T07:11:50;1.17;;;1.10;;
64063;SDS011;50314;50.618;10.642;2022-08-06T07:14:19;0.82;;;0.82;;
64063;SDS011;50314;50.618;10.642;2022-08-06T07:16:46;3.25;;;1.13;;
64063;SDS011;50314;50.618;10.642;2022-08-06T07:19:14;2.00;;;1.17;;
64063;SDS011;50314;50.618;10.642;2022-08-06T07:21:42;1.52;;;1.17;;
64063;SDS011;50314;50.618;10.642;2022-08-06T07:24:10;1.02;;;1.00;;
64063;SDS011;50314;50.618;10.642;2022-08-06T07:26:37;1.80;;;1.00;;
64063;SDS011;50314;50.618;10.642;2022-08-06T07:29:06;1.38;;;1.10;;
64063;SDS011;50314;50.618;10.642;2022-08-06T07:31:34;1.00;;;0.90;;
64063;SDS011;50314;50.618;10.642;2022-08-06T07:34:01;0.98;;;0.98;;
64063;SDS011;50314;50.618;10.642;2022-08-06T07:36:30;0.90;;;0.90;;
64063;SDS011;50314;50.618;10.642;2022-08-06T07:38:58;2.08;;;0.90;;
64063;SDS011;50314;50.618;10.642;2022-08-06T07:41:27;1.58;;;1.00;;
64063;SDS011;50314;50.618;10.642;2022-08-06T07:43:57;0.80;;;0.80;;
64063;SDS011;50314;50.618;10.642;2022-08-06T07:46:31;0.95;;;0.90;;
64063;SDS011;50314;50.618;10.642;2022-08-06T07:49:04;1.15;;;1.02;;
64063;SDS011;50314;50.618;10.642;2022-08-06T07:51:32;1.00;;;0.90;;
64063;SDS011;50314;50.618;10.642;2022-08-06T07:54:03;0.90;;;0.90;;
64063;SDS011;50314;50.618;10.642;2022-08-06T07:56:29;0.80;;;0.80;;
64063;SDS011;50314;50.618;10.642;2022-08-06T07:58:55;0.90;;;0.90;;
64063;SDS011;50314;50.618;10.642;2022-08-06T08:01:21;0.80;;;0.80;;
64063;SDS011;50314;50.618;10.642;2022-08-06T08:03:48;1.83;;;1.00;;
64063;SDS011;50314;50.618;10.642;2022-08-06T08:06:34;0.90;;;0.90;;
64063;SDS011;50314;50.618;10.642;2022-08-06T08:09:02;0.82;;;0.82;;
64063;SDS011;50314;50.618;10.642;2022-08-06T08:11:37;0.80;;;0.80;;
64063;SDS011;50314;50.618;10.642;2022-08-06T08:14:06;1.42;;;0.88;;
64063;SDS011;50314;50.618;10.642;2022-08-06T08:16:34;1.05;;;0.82;;
64063;SDS011;50314;50.618;10.642;2022-08-06T08:19:00;1.17;;;0.80;;
64063;SDS011;50314;50.618;10.642;2022-08-06T08:21:26;0.88;;;0.80;;
64063;SDS011;50314;50.618;10.642;2022-08-06T08:23:54;1.42;;;0.95;;
64063;SDS011;50314;50.618;10.642;2022-08-06T08:28:45;1.38;;;1.10;;
64063;SDS011;50314;50.618;10.642;2022-08-06T08:31:11;1.00;;;0.82;;
64063;SDS011;50314;50.618;10.642;2022-08-06T08:33:38;2.05;;;0.88;;
64063;SDS011;50314;50.618;10.642;2022-08-06T08:36:04;1.08;;;0.98;;
64063;SDS011;50314;50.618;10.642;2022-08-06T08:38:32;2.00;;;0.95;;
64063;SDS011;50314;50.618;10.642;2022-08-06T08:41:00;2.30;;;1.10;;
64063;SDS011;50314;50.618;10.642;2022-08-06T08:43:37;1.25;;;0.70;;
64063;SDS011;50314;50.618;10.642;2022-08-06T08:46:08;0.75;;;0.75;;
64063;SDS011;50314;50.618;10.642;2022-08-06T08:48:34;0.93;;;0.70;;
64063;SDS011;50314;50.618;10.642;2022-08-06T08:51:02;1.73;;;0.90;;
64063;SDS011;50314;50.618;10.642;2022-08-06T08:56:05;0.90;;;0.90;;
64063;SDS011;50314;50.618;10.642;2022-08-06T08:58:31;1.13;;;0.95;;
64063;SDS011;50314;50.618;10.642;2022-08-06T09:01:01;0.90;;;0.90;;
64063;SDS011;50314;50.618;10.642;2022-08-06T09:03:27;1.95;;;1.20;;
64063;SDS011;50314;50.618;10.642;2022-08-06T09:05:53;1.13;;;0.95;;
64063;SDS011;50314;50.618;10.642;2022-08-06T09:08:20;1.27;;;1.00;;
64063;SDS011;50314;50.618;10.642;2022-08-06T09:10:46;1.00;;;1.00;;
64063;SDS011;50314;50.618;10.642;2022-08-06T09:13:12;2.38;;;1.00;;
64063;SDS011;50314;50.618;10.642;2022-08-06T09:15:37;0.98;;;0.90;;
64063;SDS011;50314;50.618;10.642;2022-08-06T09:18:02;1.30;;;1.20;;
64063;SDS011;50314;50.618;10.642;2022-08-06T09:20:29;1.10;;;1.00;;
64063;SDS011;50314;50.618;10.642;2022-08-06T09:22:55;1.00;;;0.95;;
64063;SDS011;50314;50.618;10.642;2022-08-06T09:25:40;2.08;;;1.10;;
64063;SDS011;50314;50.618;10.642;2022-08-06T09:28:10;1.10;;;1.10;;
64063;SDS011;50314;50.618;10.642;2022-08-06T09:30:58;1.63;;;1.10;;
64063;SDS011;50314;50.618;10.642;2022-08-06T09:33:24;2.78;;;1.70;;
64063;SDS011;50314;50.618;10.642;2022-08-06T09:36:00;9.68;;;3.38;;
64063;SDS011;50314;50.618;10.642;2022-08-06T09:38:27;8.65;;;2.60;;
64063;SDS011;50314;50.618;10.642;2022-08-06T09:43:36;5.53;;;2.22;;
64063;SDS011;50314;50.618;10.642;2022-08-06T09:46:02;4.95;;;1.98;;
64063;SDS011;50314;50.618;10.642;2022-08-06T09:48:28;4.78;;;1.77;;
64063;SDS011;50314;50.618;10.642;2022-08-06T09:50:54;5.00;;;1.75;;
64063;SDS011;50314;50.618;10.642;2022-08-06T09:53:20;2.55;;;1.40;;
64063;SDS011;50314;50.618;10.642;2022-08-06T09:55:48;2.63;;;1.42;;
64063;SDS011;50314;50.618;10.642;2022-08-06T09:58:25;2.85;;;1.38;;
64063;SDS011;50314;50.618;10.642;2022-08-06T10:03:45;2.03;;;0.93;;
64063;SDS011;50314;50.618;10.642;2022-08-06T10:06:15;2.75;;;1.25;;
64063;SDS011;50314;50.618;10.642;2022-08-06T10:08:46;1.15;;;1.05;;
64063;SDS011;50314;50.618;10.642;2022-08-06T10:13:37;1.07;;;0.90;;
64063;SDS011;50314;50.618;10.642;2022-08-06T10:16:20;1.55;;;1.30;;
64063;SDS011;50314;50.618;10.642;2022-08-06T10:18:55;1.27;;;1.25;;
64063;SDS011;50314;50.618;10.642;2022-08-06T10:21:23;1.13;;;1.10;;
64063;SDS011;50314;50.618;10.642;2022-08-06T10:23:53;1.08;;;1.00;;
64063;SDS011;50314;50.618;10.642;2022-08-06T10:26:30;1.45;;;1.00;;
64063;SDS011;50314;50.618;10.642;2022-08-06T10:29:00;1.30;;;1.20;;
64063;SDS011;50314;50.618;10.642;2022-08-06T10:31:27;1.02;;;0.80;;
64063;SDS011;50314;50.618;10.642;2022-08-06T10:34:04;1.92;;;1.00;;
64063;SDS011;50314;50.618;10.642;2022-08-06T10:36:39;0.95;;;0.93;;
64063;SDS011;50314;50.618;10.642;2022-08-06T10:39:08;1.30;;;0.93;;
64063;SDS011;50314;50.618;10.642;2022-08-06T10:41:34;1.15;;;1.00;;
64063;SDS011;50314;50.618;10.642;2022-08-06T10:44:04;0.95;;;0.90;;
64063;SDS011;50314;50.618;10.642;2022-08-06T10:46:30;1.58;;;1.10;;
64063;SDS011;50314;50.618;10.642;2022-08-06T10:48:56;1.30;;;1.13;;
64063;SDS011;50314;50.618;10.642;2022-08-06T10:51:22;2.05;;;1.30;;
64063;SDS011;50314;50.618;10.642;2022-08-06T10:53:48;1.25;;;1.15;;
64063;SDS011;50314;50.618;10.642;2022-08-06T10:56:15;1.27;;;1.17;;
64063;SDS011;50314;50.618;10.642;2022-08-06T10:58:41;2.17;;;0.80;;
64063;SDS011;50314;50.618;10.642;2022-08-06T11:01:15;1.33;;;1.30;;
64063;SDS011;50314;50.618;10.642;2022-08-06T11:12:39;1.65;;;0.57;;
64063;SDS011;50314;50.618;10.642;2022-08-06T11:15:13;1.25;;;0.50;;
64063;SDS011;50314;50.618;10.642;2022-08-06T11:22:59;1.95;;;0.60;;
64063;SDS011;50314;50.618;10.642;2022-08-06T11:25:36;1.48;;;0.40;;
64063;SDS011;50314;50.618;10.642;2022-08-06T11:28:02;1.02;;;0.50;;
64063;SDS011;50314;50.618;10.642;2022-08-06T11:30:39;0.90;;;0.30;;
64063;SDS011;50314;50.618;10.642;2022-08-06T11:33:06;0.95;;;0.40;;
64063;SDS011;50314;50.618;10.642;2022-08-06T11:38:04;0.40;;;0.40;;
64063;SDS011;50314;50.618;10.642;2022-08-06T11:51:39;0.30;;;0.30;;
64063;SDS011;50314;50.618;10.642;2022-08-06T12:02:14;0.30;;;0.30;;
64063;SDS011;50314;50.618;10.642;2022-08-06T12:05:00;0.63;;;0.30;;
64063;SDS011;50314;50.618;10.642;2022-08-06T12:07:27;1.20;;;0.38;;
64063;SDS011;50314;50.618;10.642;2022-08-06T12:23:21;0.35;;;0.35;;
64063;SDS011;50314;50.618;10.642;2022-08-06T12:25:48;1.05;;;0.30;;
64063;SDS011;50314;50.618;10.642;2022-08-06T12:28:15;0.35;;;0.30;;
64063;SDS011;50314;50.618;10.642;2022-08-06T12:30:43;0.40;;;0.40;;
64063;SDS011;50314;50.618;10.642;2022-08-06T12:33:09;0.30;;;0.20;;
64063;SDS011;50314;50.618;10.642;2022-08-06T12:35:36;0.35;;;0.32;;
64063;SDS011;50314;50.618;10.642;2022-08-06T12:38:12;0.98;;;0.40;;
64063;SDS011;50314;50.618;10.642;2022-08-06T12:40:38;0.73;;;0.35;;
64063;SDS011;50314;50.618;10.642;2022-08-06T12:45:30;0.90;;;0.50;;
64063;SDS011;50314;50.618;10.642;2022-08-06T12:48:00;0.57;;;0.30;;
64063;SDS011;50314;50.618;10.642;2022-08-06T12:50:26;0.30;;;0.30;;
64063;SDS011;50314;50.618;10.642;2022-08-06T12:53:03;1.17;;;0.52;;
64063;SDS011;50314;50.618;10.642;2022-08-06T12:55:29;0.70;;;0.40;;
64063;SDS011;50314;50.618;10.642;2022-08-06T12:57:56;0.63;;;0.30;;
64063;SDS011;50314;50.618;10.642;2022-08-06T13:00:22;0.55;;;0.35;;
64063;SDS011;50314;50.618;10.642;2022-08-06T13:02:48;1.83;;;0.40;;
64063;SDS011;50314;50.618;10.642;2022-08-06T13:05:15;0.45;;;0.30;;
64063;SDS011;50314;50.618;10.642;2022-08-06T13:07:41;1.63;;;0.30;;
64063;SDS011;50314;50.618;10.642;2022-08-06T13:10:11;0.35;;;0.35;;
64063;SDS011;50314;50.618;10.642;2022-08-06T13:12:37;0.65;;;0.40;;
64063;SDS011;50314;50.618;10.642;2022-08-06T13:15:10;0.40;;;0.40;;
64063;SDS011;50314;50.618;10.642;2022-08-06T13:17:40;0.40;;;0.40;;
64063;SDS011;50314;50.618;10.642;2022-08-06T13:20:06;1.33;;;0.30;;
64063;SDS011;50314;50.618;10.642;2022-08-06T13:22:47;0.52;;;0.32;;
64063;SDS011;50314;50.618;10.642;2022-08-06T13:25:14;1.23;;;0.50;;
64063;SDS011;50314;50.618;10.642;2022-08-06T13:27:44;0.40;;;0.40;;
64063;SDS011;50314;50.618;10.642;2022-08-06T13:30:10;0.50;;;0.30;;
64063;SDS011;50314;50.618;10.642;2022-08-06T13:32:36;0.45;;;0.32;;
64063;SDS011;50314;50.618;10.642;2022-08-06T13:35:03;0.43;;;0.32;;
64063;SDS011;50314;50.618;10.642;2022-08-06T13:37:51;2.63;;;0.50;;
64063;SDS011;50314;50.618;10.642;2022-08-06T13:40:18;3.72;;;0.50;;
64063;SDS011;50314;50.618;10.642;2022-08-06T13:45:28;0.95;;;0.60;;
64063;SDS011;50314;50.618;10.642;2022-08-06T13:48:01;0.40;;;0.35;;
64063;SDS011;50314;50.618;10.642;2022-08-06T13:50:34;0.93;;;0.50;;
64063;SDS011;50314;50.618;10.642;2022-08-06T13:53:01;0.60;;;0.32;;
64063;SDS011;50314;50.618;10.642;2022-08-06T13:55:27;1.10;;;0.50;;
64063;SDS011;50314;50.618;10.642;2022-08-06T13:57:54;1.73;;;0.75;;
64063;SDS011;50314;50.618;10.642;2022-08-06T14:00:20;2.15;;;0.60;;
64063;SDS011;50314;50.618;10.642;2022-08-06T14:02:45;1.77;;;0.80;;
64063;SDS011;50314;50.618;10.642;2022-08-06T14:05:11;1.02;;;0.50;;
64063;SDS011;50314;50.618;10.642;2022-08-06T14:07:37;0.68;;;0.57;;
64063;SDS011;50314;50.618;10.642;2022-08-06T14:10:02;0.63;;;0.60;;
64063;SDS011;50314;50.618;10.642;2022-08-06T14:12:29;0.50;;;0.50;;
64063;SDS011;50314;50.618;10.642;2022-08-06T14:14:54;0.50;;;0.50;;
64063;SDS011;50314;50.618;10.642;2022-08-06T14:17:19;1.08;;;0.50;;
64063;SDS011;50314;50.618;10.642;2022-08-06T14:19:45;1.05;;;0.40;;
64063;SDS011;50314;50.618;10.642;2022-08-06T14:22:10;1.42;;;0.50;;
64063;SDS011;50314;50.618;10.642;2022-08-06T14:24:36;0.85;;;0.60;;
64063;SDS011;50314;50.618;10.642;2022-08-06T14:27:02;0.85;;;0.32;;
64063;SDS011;50314;50.618;10.642;2022-08-06T14:29:28;1.45;;;0.50;;
64063;SDS011;50314;50.618;10.642;2022-08-06T14:31:53;0.50;;;0.50;;
64063;SDS011;50314;50.618;10.642;2022-08-06T14:34:19;0.93;;;0.50;;
64063;SDS011;50314;50.618;10.642;2022-08-06T14:36:45;0.73;;;0.40;;
64063;SDS011;50314;50.618;10.642;2022-08-06T14:39:10;0.68;;;0.50;;
64063;SDS011;50314;50.618;10.642;2022-08-06T14:41:39;1.35;;;0.60;;
64063;SDS011;50314;50.618;10.642;2022-08-06T14:44:23;0.40;;;0.40;;
64063;SDS011;50314;50.618;10.642;2022-08-06T14:47:07;0.65;;;0.32;;
64063;SDS011;50314;50.618;10.642;2022-08-06T14:49:33;0.45;;;0.32;;
64063;SDS011;50314;50.618;10.642;2022-08-06T14:51:59;1.05;;;0.73;;
64063;SDS011;50314;50.618;10.642;2022-08-06T14:54:25;0.98;;;0.40;;
64063;SDS011;50314;50.618;10.642;2022-08-06T14:56:51;0.55;;;0.45;;
64063;SDS011;50314;50.618;10.642;2022-08-06T14:59:16;0.38;;;0.38;;
64063;SDS011;50314;50.618;10.642;2022-08-06T15:01:42;0.93;;;0.60;;
64063;SDS011;50314;50.618;10.642;2022-08-06T15:04:08;0.38;;;0.38;;
64063;SDS011;50314;50.618;10.642;2022-08-06T15:06:34;0.40;;;0.40;;
64063;SDS011;50314;50.618;10.642;2022-08-06T15:08:59;0.32;;;0.32;;
64063;SDS011;50314;50.618;10.642;2022-08-06T15:11:25;0.50;;;0.50;;
64063;SDS011;50314;50.618;10.642;2022-08-06T15:13:50;1.00;;;0.60;;
64063;SDS011;50314;50.618;10.642;2022-08-06T15:16:15;2.45;;;0.77;;
64063;SDS011;50314;50.618;10.642;2022-08-06T15:18:41;0.70;;;0.52;;
64063;SDS011;50314;50.618;10.642;2022-08-06T15:21:09;2.72;;;0.60;;
64063;SDS011;50314;50.618;10.642;2022-08-06T15:23:34;1.83;;;0.60;;
64063;SDS011;50314;50.618;10.642;2022-08-06T15:26:00;0.40;;;0.40;;
64063;SDS011;50314;50.618;10.642;2022-08-06T15:28:25;0.88;;;0.60;;
64063;SDS011;50314;50.618;10.642;2022-08-06T15:30:51;1.05;;;0.30;;
64063;SDS011;50314;50.618;10.642;2022-08-06T15:33:17;0.40;;;0.40;;
64063;SDS011;50314;50.618;10.642;2022-08-06T15:35:43;0.68;;;0.40;;
64063;SDS011;50314;50.618;10.642;2022-08-06T15:38:09;0.85;;;0.40;;
64063;SDS011;50314;50.618;10.642;2022-08-06T15:40:35;0.95;;;0.50;;
64063;SDS011;50314;50.618;10.642;2022-08-06T15:43:00;0.65;;;0.60;;
64063;SDS011;50314;50.618;10.642;2022-08-06T15:45:26;0.32;;;0.32;;
64063;SDS011;50314;50.618;10.642;2022-08-06T15:47:51;0.57;;;0.40;;
64063;SDS011;50314;50.618;10.642;2022-08-06T15:50:17;1.35;;;0.50;;
64063;SDS011;50314;50.618;10.642;2022-08-06T15:52:42;0.40;;;0.40;;
64063;SDS011;50314;50.618;10.642;2022-08-06T15:55:07;0.95;;;0.50;;
64063;SDS011;50314;50.618;10.642;2022-08-06T15:57:33;1.25;;;0.40;;
64063;SDS011;50314;50.618;10.642;2022-08-06T15:59:59;1.65;;;0.40;;
64063;SDS011;50314;50.618;10.642;2022-08-06T16:02:24;1.80;;;0.60;;
64063;SDS011;50314;50.618;10.642;2022-08-06T16:04:50;0.80;;;0.60;;
64063;SDS011;50314;50.618;10.642;2022-08-06T16:07:16;0.50;;;0.50;;
64063;SDS011;50314;50.618;10.642;2022-08-06T16:09:42;0.52;;;0.40;;
64063;SDS011;50314;50.618;10.642;2022-08-06T16:12:08;0.45;;;0.40;;
64063;SDS011;50314;50.618;10.642;2022-08-06T16:14:34;0.68;;;0.30;;
64063;SDS011;50314;50.618;10.642;2022-08-06T16:17:00;0.85;;;0.60;;